Time;durP1;ratioP1;P1;durP2;ratioP2;P2;SDS_P1;SDS_P2;PMS_P1;PMS_P2;Temp;Humidity;BMP_temperature;BMP_pressure;BME280_temperature;BME280_humidity;BME280_pressure;Samples;Min_cycle;Max_cycle;Signal;HPM_P1;HPM_P2
2023/05/02 19:03:53;;;;;;;3.47;1.55;;;23.00;29.60;;;;;;6862413;23;20057;-73
2023/05/02 19:06:59;;;;;;;2.35;1.17;;;22.90;29.70;;;;;;6056113;29;20045;-73
2023/05/02 19:10:06;;;;;;;5.13;1.50;;;22.80;29.90;;;;;;6051651;29;20040;-71
2023/05/02 19:13:13;;;;;;;3.05;1.13;;;22.60;30.10;;;;;;6053123;29;20041;-72
2023/05/02 19:16:24;;;;;;;2.08;1.15;;;22.50;30.50;;;;;;6051941;29;20468;-74
2023/05/02 19:19:32;;;;;;;2.13;1.40;;;22.40;30.80;;;;;;6052827;29;20035;-72
2023/05/02 19:22:42;;;;;;;2.45;0.98;;;22.30;30.90;;;;;;6036923;29;20040;-72
2023/05/02 19:25:56;;;;;;;3.35;1.35;;;22.20;31.20;;;;;;6052843;29;20072;-72
2023/05/02 19:29:02;;;;;;;4.38;1.40;;;22.10;31.30;;;;;;6052281;29;20464;-73
2023/05/02 19:32:11;;;;;;;3.95;1.20;;;22.00;31.60;;;;;;6051450;29;20499;-73
2023/05/02 19:35:23;;;;;;;1.73;1.42;;;21.90;31.80;;;;;;6052806;29;20100;-72
2023/05/02 19:38:31;;;;;;;3.28;1.35;;;21.80;32.10;;;;;;6052576;29;20151;-73
2023/05/02 19:41:41;;;;;;;3.17;1.27;;;21.70;32.20;;;;;;6052501;29;20063;-72
2023/05/02 19:44:51;;;;;;;3.03;1.30;;;21.70;32.40;;;;;;6052202;29;20117;-72
2023/05/02 19:47:58;;;;;;;1.30;1.08;;;21.60;32.50;;;;;;6050966;29;20052;-72
2023/05/02 19:51:08;;;;;;;1.30;1.13;;;21.50;32.60;;;;;;6051690;29;20047;-71
2023/05/02 19:54:24;;;;;;;5.45;1.65;;;21.50;32.70;;;;;;6068277;29;20025;-72
2023/05/02 19:57:29;;;;;;;4.07;1.10;;;21.50;32.60;;;;;;6050449;29;20186;-72
2023/05/02 20:00:40;;;;;;;1.50;1.20;;;21.50;32.50;;;;;;6065712;29;20048;-72
2023/05/02 20:03:51;;;;;;;1.23;1.13;;;21.50;32.50;;;;;;6035395;29;20037;-72
2023/05/02 20:07:00;;;;;;;10.52;1.10;;;21.50;32.30;;;;;;6050487;29;20043;-72
2023/05/02 20:10:10;;;;;;;1.58;1.00;;;21.50;32.10;;;;;;6065689;29;20064;-72
2023/05/02 20:13:18;;;;;;;1.45;1.30;;;21.50;32.10;;;;;;6049594;29;20508;-71
2023/05/02 20:16:35;;;;;;;7.55;1.30;;;21.60;32.00;;;;;;6035159;29;20044;-71
2023/05/02 20:19:44;;;;;;;5.50;1.10;;;21.50;32.10;;;;;;6051448;29;20513;-74
2023/05/02 20:22:55;;;;;;;1.55;1.20;;;21.50;32.30;;;;;;6064998;29;20044;-72
2023/05/02 20:26:01;;;;;;;2.00;0.95;;;21.50;32.30;;;;;;6052206;29;20033;-71
2023/05/02 20:29:10;;;;;;;3.17;1.30;;;21.50;32.30;;;;;;6053767;29;20465;-72
2023/05/02 20:32:15;;;;;;;3.17;0.90;;;21.50;32.20;;;;;;6053416;29;20029;-73
2023/05/02 20:35:26;;;;;;;2.05;1.20;;;21.70;32.30;;;;;;6053085;29;20036;-72
2023/05/02 20:38:32;;;;;;;1.95;1.30;;;21.40;32.10;;;;;;6052061;29;20125;-73
2023/05/02 20:41:39;;;;;;;4.57;1.20;;;21.30;32.10;;;;;;6050839;29;20072;-72
2023/05/02 20:44:46;;;;;;;2.50;1.40;;;21.50;32.40;;;;;;6065782;29;20056;-73
2023/05/02 20:47:57;;;;;;;1.23;0.93;;;21.40;32.50;;;;;;6034997;29;20045;-72
2023/05/02 20:51:05;;;;;;;2.03;1.35;;;21.40;32.60;;;;;;6035184;29;20041;-72
2023/05/02 20:54:21;;;;;;;1.45;1.15;;;21.40;32.80;;;;;;6073027;29;20370;-73
2023/05/02 20:57:31;;;;;;;2.75;1.40;;;21.40;33.00;;;;;;6072138;29;20033;-73
2023/05/02 21:00:40;;;;;;;2.33;1.38;;;21.30;33.20;;;;;;6073799;29;20036;-71
2023/05/02 21:03:48;;;;;;;7.45;1.38;;;21.30;33.40;;;;;;6073887;29;20064;-72
2023/05/02 21:07:00;;;;;;;4.00;1.73;;;21.20;33.50;;;;;;6073003;29;20029;-72
2023/05/02 21:10:15;;;;;;;3.38;1.45;;;21.20;33.80;;;;;;6073798;29;20033;-74
2023/05/02 21:13:24;;;;;;;4.55;1.23;;;21.10;33.80;;;;;;6074344;29;20044;-73
2023/05/02 21:16:35;;;;;;;7.57;1.23;;;21.10;34.00;;;;;;6073474;29;20100;-72
2023/05/02 21:19:43;;;;;;;2.00;1.35;;;21.00;34.20;;;;;;6071446;29;20426;-72
2023/05/02 21:22:49;;;;;;;4.50;1.42;;;21.00;34.30;;;;;;6058064;29;20037;-73
2023/05/02 21:26:00;;;;;;;1.92;1.40;;;20.90;34.40;;;;;;6048827;29;20096;-74
2023/05/02 21:29:10;;;;;;;1.48;1.27;;;20.80;34.70;;;;;;6048924;29;20025;-73
2023/05/02 21:32:21;;;;;;;1.77;1.58;;;20.70;34.90;;;;;;6049660;29;20064;-74
2023/05/02 21:35:32;;;;;;;1.85;1.35;;;20.70;35.20;;;;;;6048325;29;20029;-73
2023/05/02 21:38:37;;;;;;;2.53;1.20;;;20.60;35.30;;;;;;6048251;29;20112;-71
2023/05/02 21:41:46;;;;;;;4.90;1.55;;;20.60;35.50;;;;;;6049916;29;20052;-73
2023/05/02 21:44:54;;;;;;;1.97;1.23;;;20.50;35.70;;;;;;6048455;29;20033;-72
2023/05/02 21:48:05;;;;;;;2.08;1.17;;;20.50;35.70;;;;;;6049437;29;20058;-73
2023/05/02 21:51:12;;;;;;;1.52;1.10;;;20.40;35.90;;;;;;6051357;29;20182;-71
2023/05/02 21:54:27;;;;;;;2.58;1.35;;;20.40;36.10;;;;;;6065186;29;20060;-71
2023/05/02 21:57:35;;;;;;;3.25;1.60;;;20.40;36.20;;;;;;6048933;29;20044;-73
2023/05/02 22:00:46;;;;;;;1.70;1.30;;;20.30;36.30;;;;;;6032913;29;20270;-72
2023/05/02 22:03:56;;;;;;;2.15;1.33;;;20.30;36.40;;;;;;6049304;29;20061;-71
2023/05/02 22:07:11;;;;;;;1.98;1.38;;;20.20;36.90;;;;;;6048041;29;20041;-73
2023/05/02 22:10:21;;;;;;;1.70;1.45;;;20.20;37.30;;;;;;6049692;29;20103;-72
2023/05/02 22:13:35;;;;;;;3.30;1.40;;;20.10;37.50;;;;;;6049425;29;20069;-73
2023/05/02 22:16:43;;;;;;;1.55;1.33;;;20.00;37.60;;;;;;6049576;29;20048;-73
2023/05/02 22:19:51;;;;;;;2.42;1.23;;;20.00;37.70;;;;;;6052868;29;20039;-72
2023/05/02 22:22:55;;;;;;;1.95;1.42;;;19.90;37.80;;;;;;6053890;29;20037;-71
2023/05/02 22:26:08;;;;;;;3.35;1.80;;;19.90;37.90;;;;;;6036638;29;20033;-72
2023/05/02 22:29:15;;;;;;;2.72;1.60;;;19.90;38.10;;;;;;6053657;29;20104;-72
2023/05/02 22:32:22;;;;;;;;;;;19.90;38.10;;;;;;6053753;29;20025;-72
2023/05/02 22:35:32;;;;;;;1.83;1.67;;;19.90;38.80;;;;;;6051989;29;19912;-72
2023/05/02 22:38:40;;;;;;;3.42;1.20;;;19.90;38.10;;;;;;6053295;29;20140;-71
2023/05/02 22:41:51;;;;;;;9.65;1.40;;;19.80;38.10;;;;;;6053563;29;20097;-73
2023/05/02 22:45:01;;;;;;;4.00;1.33;;;19.80;38.00;;;;;;6036789;29;20037;-71
2023/05/02 22:48:11;;;;;;;2.65;1.70;;;19.80;38.30;;;;;;6037807;29;20127;-70
2023/05/02 22:51:19;;;;;;;2.53;1.23;;;19.80;38.00;;;;;;6055088;29;20051;-73
2023/05/02 22:54:27;;;;;;;3.08;1.40;;;19.80;38.00;;;;;;6054440;29;20037;-71
2023/05/02 22:57:34;;;;;;;2.75;1.65;;;19.70;38.10;;;;;;6053425;29;20108;-71
2023/05/02 23:00:43;;;;;;;4.60;1.35;;;19.70;38.40;;;;;;6052989;29;20041;-72
2023/05/02 23:03:53;;;;;;;1.90;1.20;;;19.60;38.70;;;;;;6051733;29;20037;-72
2023/05/02 23:06:59;;;;;;;3.03;1.52;;;19.60;38.90;;;;;;6051546;29;20029;-71
2023/05/02 23:10:11;;;;;;;2.17;1.30;;;19.50;39.30;;;;;;6052533;29;20033;-71
2023/05/02 23:13:22;;;;;;;2.15;1.58;;;19.40;39.40;;;;;;6052821;29;20140;-71
2023/05/02 23:16:35;;;;;;;1.55;1.40;;;19.40;39.60;;;;;;6029479;29;20061;-71
2023/05/02 23:19:44;;;;;;;3.47;1.80;;;19.40;39.60;;;;;;6029366;29;20178;-72
2023/05/02 23:22:55;;;;;;;2.42;1.52;;;19.30;39.90;;;;;;6028141;29;20092;-72
2023/05/02 23:26:01;;;;;;;2.80;1.60;;;19.20;40.20;;;;;;6029346;29;20042;-72
2023/05/02 23:29:11;;;;;;;1.65;1.27;;;19.20;40.40;;;;;;6033874;29;20037;-72
2023/05/02 23:32:23;;;;;;;2.15;1.58;;;19.20;40.80;;;;;;6050449;29;20040;-72
2023/05/02 23:35:34;;;;;;;3.85;1.77;;;19.10;40.90;;;;;;6052584;29;20112;-73
2023/05/02 23:38:41;;;;;;;2.53;1.40;;;19.00;40.90;;;;;;6050888;29;20093;-72
2023/05/02 23:41:51;;;;;;;3.55;1.70;;;19.00;41.10;;;;;;6035695;29;20034;-71
2023/05/02 23:45:00;;;;;;;1.70;1.55;;;18.90;41.10;;;;;;6042779;29;20069;-73
2023/05/02 23:48:12;;;;;;;2.95;1.50;;;18.90;41.40;;;;;;6029118;29;20029;-72
2023/05/02 23:51:23;;;;;;;2.15;1.48;;;18.80;41.50;;;;;;6032707;29;20032;-71
2023/05/02 23:54:31;;;;;;;3.25;1.55;;;18.70;41.70;;;;;;6065903;29;20025;-72
2023/05/02 23:57:37;;;;;;;1.98;1.60;;;18.70;42.20;;;;;;6051987;29;20063;-72
